Time,TemperatureF,DewpointF,PressureIn,WindDirection,WindDirectionDegrees,WindSpeedMPH,WindSpeedGustMPH,Humidity,HourlyPrecipIn,Conditions,Clouds,dailyrainin,SolarRadiationWatts/m^2,SoftwareType,DateUTC
2013-03-03 00:22:00,29.0,10.0,-100.00,ENE,63,0.0,3.0,44,0.00,,,0.01,111.000000,,2013-03-03 00:22:00,
2013-03-03 00:32:00,29.0,10.0,-100.00,ENE,63,0.0,3.0,44,0.00,,,0.01,111.000000,,2013-03-03 00:32:00,
2013-03-03 00:42:00,29.0,10.0,-100.00,ENE,63,0.0,3.0,44,0.00,,,0.01,111.000000,,2013-03-03 00:42:00,
2013-03-03 00:52:00,29.0,10.0,-100.00,ENE,63,0.0,3.0,44,0.00,,,0.01,111.000000,,2013-03-03 00:52:00,
2013-03-03 01:21:00,28.0,11.0,-100.00,NNW,340,1.0,4.0,48,0.00,,,-99.99,102.000000,,2013-03-03 01:21:00,
2013-03-03 01:31:00,28.0,11.0,-100.00,NNW,340,1.0,4.0,48,0.00,,,-99.99,102.000000,,2013-03-03 01:31:00,
2013-03-03 01:41:00,28.0,11.0,-100.00,NNW,340,1.0,4.0,48,0.00,,,-99.99,102.000000,,2013-03-03 01:41:00,
2013-03-03 01:51:00,28.0,11.0,-100.00,NNW,340,1.0,4.0,48,0.00,,,-99.99,102.000000,,2013-03-03 01:51:00,
2013-03-03 02:21:00,28.0,9.0,-100.00,NNE,14,0.0,3.0,45,0.00,,,0.00,58.000000,,2013-03-03 02:21:00,
2013-03-03 02:31:00,28.0,9.0,-100.00,NNE,14,0.0,3.0,45,0.00,,,0.00,58.000000,,2013-03-03 02:31:00,
2013-03-03 02:41:00,28.0,9.0,-100.00,NNE,14,0.0,3.0,45,0.00,,,0.00,58.000000,,2013-03-03 02:41:00,
2013-03-03 02:52:00,28.0,9.0,-100.00,NNE,14,0.0,3.0,45,0.00,,,0.00,58.000000,,2013-03-03 02:52:00,
2013-03-03 03:21:00,26.0,10.0,-100.00,ESE,102,0.0,1.0,51,0.00,,,0.00,21.000000,,2013-03-03 03:21:00,
2013-03-03 03:31:00,26.0,10.0,-100.00,ESE,102,0.0,1.0,51,0.00,,,0.00,21.000000,,2013-03-03 03:31:00,
2013-03-03 03:41:00,26.0,10.0,-100.00,ESE,102,0.0,1.0,51,0.00,,,0.00,21.000000,,2013-03-03 03:41:00,
2013-03-03 03:51:00,26.0,10.0,-100.00,ESE,102,0.0,1.0,51,0.00,,,0.00,21.000000,,2013-03-03 03:51:00,
2013-03-03 04:21:00,24.0,14.0,-100.00,ENE,65,0.0,1.0,66,0.00,,,0.00,0.000000,,2013-03-03 04:21:00,
2013-03-03 04:31:00,24.0,14.0,-100.00,ENE,65,0.0,1.0,66,0.00,,,0.00,0.000000,,2013-03-03 04:31:00,
2013-03-03 04:41:00,24.0,14.0,-100.00,ENE,65,0.0,1.0,66,0.00,,,0.00,0.000000,,2013-03-03 04:41:00,
2013-03-03 04:51:00,24.0,14.0,-100.00,ENE,65,0.0,1.0,66,0.00,,,0.00,0.000000,,2013-03-03 04:51:00,
2013-03-03 05:22:00,23.0,19.0,-100.00,NW,325,0.0,0.0,85,0.00,,,0.00,0.000000,,2013-03-03 05:22:00,
2013-03-03 05:32:00,23.0,19.0,-100.00,NW,325,0.0,0.0,85,0.00,,,0.00,0.000000,,2013-03-03 05:32:00,
2013-03-03 06:21:00,22.0,19.0,-100.00,NNW,330,0.0,0.0,87,0.00,,,0.00,0.000000,,2013-03-03 06:21:00,
2013-03-03 06:31:00,22.0,19.0,-100.00,NNW,330,0.0,0.0,87,0.00,,,0.00,0.000000,,2013-03-03 06:31:00,
2013-03-03 06:42:00,22.0,19.0,-100.00,NNW,330,0.0,0.0,87,0.00,,,0.00,0.000000,,2013-03-03 06:42:00,
2013-03-03 06:52:00,22.0,19.0,-100.00,NNW,330,0.0,0.0,87,0.00,,,0.00,0.000000,,2013-03-03 06:52:00,
2013-03-03 07:21:00,20.0,17.0,-100.00,North,349,0.0,0.0,88,0.00,,,-99.99,0.000000,,2013-03-03 07:21:00,
2013-03-03 07:31:00,20.0,17.0,-100.00,North,349,0.0,0.0,88,0.00,,,-99.99,0.000000,,2013-03-03 07:31:00,
2013-03-03 07:42:00,20.0,17.0,-100.00,North,349,0.0,0.0,88,0.00,,,-99.99,0.000000,,2013-03-03 07:42:00,
2013-03-03 07:51:00,20.0,17.0,-100.00,North,349,0.0,0.0,88,0.00,,,-99.99,0.000000,,2013-03-03 07:51:00,
2013-03-03 08:21:00,19.0,16.0,-100.00,SSE,164,0.0,0.0,88,0.00,,,-99.99,0.000000,,2013-03-03 08:21:00,
2013-03-03 08:31:00,19.0,16.0,-100.00,SSE,164,0.0,0.0,88,0.00,,,-99.99,0.000000,,2013-03-03 08:31:00,
2013-03-03 08:41:00,19.0,16.0,-100.00,SSE,164,0.0,0.0,88,0.00,,,-99.99,0.000000,,2013-03-03 08:41:00,
2013-03-03 08:53:00,19.0,16.0,-100.00,SSE,164,0.0,0.0,88,0.00,,,-99.99,0.000000,,2013-03-03 08:53:00,
2013-03-03 09:21:00,17.0,14.0,-100.00,SSW,196,0.0,1.0,88,0.00,,,0.00,0.000000,,2013-03-03 09:21:00,
2013-03-03 09:32:00,17.0,14.0,-100.00,SSW,196,0.0,1.0,88,0.00,,,0.00,0.000000,,2013-03-03 09:32:00,
2013-03-03 09:41:00,17.0,14.0,-100.00,SSW,196,0.0,1.0,88,0.00,,,0.00,0.000000,,2013-03-03 09:41:00,
2013-03-03 09:51:00,17.0,14.0,-100.00,SSW,196,0.0,1.0,88,0.00,,,0.00,0.000000,,2013-03-03 09:51:00,
2013-03-03 10:21:00,14.0,11.0,-100.00,SE,141,1.0,2.0,87,0.00,,,0.00,0.000000,,2013-03-03 10:21:00,
2013-03-03 10:32:00,14.0,11.0,-100.00,SE,141,1.0,2.0,87,0.00,,,0.00,0.000000,,2013-03-03 10:32:00,
2013-03-03 10:42:00,14.0,11.0,-100.00,SE,141,1.0,2.0,87,0.00,,,0.00,0.000000,,2013-03-03 10:42:00,
2013-03-03 10:51:00,14.0,11.0,-100.00,SE,141,1.0,2.0,87,0.00,,,0.00,0.000000,,2013-03-03 10:51:00,
2013-03-03 11:21:00,9.0,5.0,-100.00,South,173,0.0,1.0,85,0.00,,,0.00,0.000000,,2013-03-03 11:21:00,
2013-03-03 11:31:00,9.0,5.0,-100.00,South,173,0.0,1.0,85,0.00,,,0.00,0.000000,,2013-03-03 11:31:00,
2013-03-03 11:42:00,9.0,5.0,-100.00,South,173,0.0,1.0,85,0.00,,,0.00,0.000000,,2013-03-03 11:42:00,
2013-03-03 11:52:00,9.0,5.0,-100.00,South,173,0.0,1.0,85,0.00,,,0.00,0.000000,,2013-03-03 11:52:00,
2013-03-03 12:21:00,5.0,1.0,-100.00,South,173,1.0,2.0,83,0.00,,,0.00,0.000000,,2013-03-03 12:21:00,
2013-03-03 12:42:00,5.0,1.0,-100.00,South,173,1.0,2.0,83,0.00,,,0.00,0.000000,,2013-03-03 12:42:00,
2013-03-03 12:52:00,5.0,1.0,-100.00,South,173,1.0,2.0,83,0.00,,,0.00,0.000000,,2013-03-03 12:52:00,
2013-03-03 13:21:00,2.0,-2.0,-100.00,South,175,0.0,2.0,82,0.00,,,0.00,0.000000,,2013-03-03 13:21:00,
2013-03-03 13:32:00,2.0,-2.0,-100.00,South,175,0.0,2.0,82,0.00,,,0.00,0.000000,,2013-03-03 13:32:00,
2013-03-03 14:21:00,0.0,-4.0,-100.00,South,183,0.0,2.0,81,0.00,,,0.00,0.000000,,2013-03-03 14:21:00,
2013-03-03 15:22:00,2.0,-2.0,-100.00,SSE,166,0.0,2.0,81,0.00,,,0.00,0.000000,,2013-03-03 15:22:00,
2013-03-03 15:32:00,2.0,-2.0,-100.00,SSE,166,0.0,2.0,81,0.00,,,0.00,0.000000,,2013-03-03 15:32:00,
2013-03-03 15:42:00,2.0,-2.0,-100.00,SSE,166,0.0,2.0,81,0.00,,,0.00,0.000000,,2013-03-03 15:42:00,
2013-03-03 15:51:00,2.0,-2.0,-100.00,SSE,166,0.0,2.0,81,0.00,,,0.00,0.000000,,2013-03-03 15:51:00,
2013-03-03 16:21:00,0.0,-5.0,-100.00,SSW,195,0.0,2.0,80,0.00,,,0.00,0.000000,,2013-03-03 16:21:00,
2013-03-03 16:31:00,0.0,-5.0,-100.00,SSW,195,0.0,2.0,80,0.00,,,0.00,0.000000,,2013-03-03 16:31:00,
2013-03-03 16:41:00,0.0,-5.0,-100.00,SSW,195,0.0,2.0,80,0.00,,,0.00,0.000000,,2013-03-03 16:41:00,
2013-03-03 16:51:00,0.0,-5.0,-100.00,SSW,195,0.0,2.0,80,0.00,,,0.00,0.000000,,2013-03-03 16:51:00,
2013-03-03 17:22:00,2.0,-2.0,-100.00,South,180,0.0,2.0,81,0.00,,,0.00,3.000000,,2013-03-03 17:22:00,
2013-03-03 17:32:00,2.0,-2.0,-100.00,South,180,0.0,2.0,81,0.00,,,0.00,3.000000,,2013-03-03 17:32:00,
2013-03-03 17:42:00,2.0,-2.0,-100.00,South,180,0.0,2.0,81,0.00,,,0.00,3.000000,,2013-03-03 17:42:00,
2013-03-03 17:52:00,2.0,-2.0,-100.00,South,180,0.0,2.0,81,0.00,,,0.00,3.000000,,2013-03-03 17:52:00,
2013-03-03 18:21:00,10.0,5.0,-100.00,NNW,344,0.0,0.0,81,0.00,,,0.00,27.000000,,2013-03-03 18:21:00,
2013-03-03 18:31:00,10.0,5.0,-100.00,NNW,344,0.0,0.0,81,0.00,,,0.00,27.000000,,2013-03-03 18:31:00,
2013-03-03 18:41:00,10.0,5.0,-100.00,NNW,344,0.0,0.0,81,0.00,,,0.00,27.000000,,2013-03-03 18:41:00,
2013-03-03 18:52:00,10.0,5.0,-100.00,NNW,344,0.0,0.0,81,0.00,,,0.00,27.000000,,2013-03-03 18:52:00,
2013-03-03 19:21:00,20.0,15.0,-100.00,NNE,25,0.0,2.0,79,0.00,,,0.00,80.000000,,2013-03-03 19:21:00,
2013-03-03 19:31:00,20.0,15.0,-100.00,NNE,25,0.0,2.0,79,0.00,,,0.00,80.000000,,2013-03-03 19:31:00,
2013-03-03 19:42:00,20.0,15.0,-100.00,NNE,25,0.0,2.0,79,0.00,,,0.00,80.000000,,2013-03-03 19:42:00,
2013-03-03 19:51:00,20.0,15.0,-100.00,NNE,25,0.0,2.0,79,0.00,,,0.00,80.000000,,2013-03-03 19:51:00,
2013-03-03 20:21:00,29.0,16.0,-100.00,NNE,19,0.0,2.0,58,0.00,,,0.00,124.000000,,2013-03-03 20:21:00,
2013-03-03 20:32:00,29.0,16.0,-100.00,NNE,19,0.0,2.0,58,0.00,,,0.00,124.000000,,2013-03-03 20:32:00,
2013-03-03 20:42:00,29.0,16.0,-100.00,NNE,19,0.0,2.0,58,0.00,,,0.00,124.000000,,2013-03-03 20:42:00,
2013-03-03 20:52:00,29.0,16.0,-100.00,NNE,19,0.0,2.0,58,0.00,,,0.00,124.000000,,2013-03-03 20:52:00,
2013-03-03 21:21:00,34.0,18.0,-100.00,North,351,0.0,3.0,52,0.00,,,0.00,192.000000,,2013-03-03 21:21:00,
2013-03-03 21:32:00,34.0,18.0,-100.00,North,351,0.0,3.0,52,0.00,,,0.00,192.000000,,2013-03-03 21:32:00,
2013-03-03 21:41:00,34.0,18.0,-100.00,North,351,0.0,3.0,52,0.00,,,0.00,192.000000,,2013-03-03 21:41:00,
2013-03-03 21:52:00,34.0,18.0,-100.00,North,351,0.0,3.0,52,0.00,,,0.00,192.000000,,2013-03-03 21:52:00,
2013-03-03 22:21:00,37.0,18.0,-100.00,NW,326,1.0,4.0,46,0.00,,,0.00,398.000000,,2013-03-03 22:21:00,
2013-03-03 22:32:00,37.0,18.0,-100.00,NW,326,1.0,4.0,46,0.00,,,0.00,398.000000,,2013-03-03 22:32:00,
2013-03-03 22:42:00,37.0,18.0,-100.00,NW,326,1.0,4.0,46,0.00,,,0.00,398.000000,,2013-03-03 22:42:00,
2013-03-03 22:52:00,37.0,18.0,-100.00,NW,326,1.0,4.0,46,0.00,,,0.00,398.000000,,2013-03-03 22:52:00,
2013-03-03 23:21:00,36.0,18.0,-100.00,NNE,19,2.0,5.0,47,0.00,,,0.00,321.000000,,2013-03-03 23:21:00,
2013-03-03 23:31:00,36.0,18.0,-100.00,NNE,19,2.0,5.0,47,0.00,,,0.00,321.000000,,2013-03-03 23:31:00,
2013-03-03 23:41:00,36.0,18.0,-100.00,NNE,19,2.0,5.0,47,0.00,,,0.00,321.000000,,2013-03-03 23:41:00,
2013-03-03 23:52:00,36.0,18.0,-100.00,NNE,19,2.0,5.0,47,0.00,,,0.00,321.000000,,2013-03-03 23:52:00,